createdAt,value
2019-04-20T00:01:44.905Z,102079.41
2019-04-20T00:04:20.501Z,102078.52
2019-04-20T00:06:48.541Z,102073.46
2019-04-20T00:09:19.348Z,102072.90
2019-04-20T00:11:53.565Z,102078.43
2019-04-20T00:14:21.900Z,102076.34
2019-04-20T00:16:44.563Z,102068.14
2019-04-20T00:19:15.340Z,102066.45
2019-04-20T00:21:52.705Z,102068.74
2019-04-20T00:24:27.572Z,102066.36
2019-04-20T00:27:13.687Z,102070.55
2019-04-20T00:29:40.712Z,102070.43
2019-04-20T00:32:02.569Z,102069.48
2019-04-20T00:34:30.071Z,102056.52
2019-04-20T00:36:56.342Z,102062.14
2019-04-20T00:39:25.873Z,102061.64
2019-04-20T00:42:00.424Z,102067.87
2019-04-20T00:44:30.383Z,102062.27
2019-04-20T00:47:08.527Z,102066.50
2019-04-20T00:49:38.813Z,102059.28
2019-04-20T00:52:24.289Z,102054.67
2019-04-20T00:54:28.471Z,102056.01
2019-04-20T00:57:11.817Z,102060.32
2019-04-20T00:59:42.882Z,102057.30
2019-04-20T01:02:14.056Z,102065.27
2019-04-20T01:04:50.452Z,102058.57
2019-04-20T01:07:17.678Z,102065.33
2019-04-20T01:09:51.968Z,102063.95
2019-04-20T01:12:25.918Z,102074.86
2019-04-20T01:14:55.993Z,102069.58
2019-04-20T01:17:20.678Z,102069.31
2019-04-20T01:19:52.705Z,102070.16
2019-04-20T01:22:22.405Z,102066.11
2019-04-20T01:24:51.576Z,102076.22
2019-04-20T01:27:32.190Z,102070.31
2019-04-20T01:30:00.568Z,102072.61
2019-04-20T01:32:31.103Z,102077.70
2019-04-20T01:34:58.597Z,102080.84
2019-04-20T01:37:32.827Z,102086.19
2019-04-20T01:39:55.449Z,102078.63
2019-04-20T01:42:21.388Z,102080.09
2019-04-20T01:44:52.432Z,102082.22
2019-04-20T01:47:23.895Z,102079.14
2019-04-20T01:49:59.858Z,102085.06
2019-04-20T01:52:27.010Z,102091.47
2019-04-20T01:55:24.495Z,102093.95
2019-04-20T01:58:00.424Z,102091.26
2019-04-20T02:00:35.209Z,102096.19
2019-04-20T02:03:22.857Z,102092.45
2019-04-20T02:05:56.443Z,102092.16
2019-04-20T02:08:21.462Z,102099.13
2019-04-20T02:10:53.674Z,102098.62
2019-04-20T02:13:19.576Z,102102.89
2019-04-20T02:15:54.123Z,102104.13
2019-04-20T02:18:31.826Z,102099.33
2019-04-20T02:21:05.161Z,102107.84
2019-04-20T02:23:31.793Z,102107.53
2019-04-20T02:25:50.068Z,102102.03
2019-04-20T02:28:38.281Z,102104.38
2019-04-20T02:31:24.831Z,102102.41
2019-04-20T02:33:59.220Z,102102.16
2019-04-20T02:36:47.869Z,102100.42
2019-04-20T02:41:43.998Z,102103.52
2019-04-20T02:44:17.993Z,102100.84
2019-04-20T02:46:43.002Z,102098.34
2019-04-20T02:49:17.595Z,102100.66
2019-04-20T02:51:41.159Z,102114.17
2019-04-20T02:54:17.039Z,102111.79
2019-04-20T02:56:40.261Z,102106.98
2019-04-20T02:59:25.031Z,102111.47
2019-04-20T03:01:29.412Z,102110.84
2019-04-20T03:03:44.975Z,102109.10
2019-04-20T03:06:20.739Z,102112.11
2019-04-20T03:09:06.332Z,102113.18
2019-04-20T03:11:44.208Z,102117.27
2019-04-20T03:13:59.386Z,102114.00
2019-04-20T03:16:25.185Z,102115.98
2019-04-20T03:18:57.402Z,102108.53
2019-04-20T03:21:33.448Z,102108.09
2019-04-20T03:24:08.394Z,102112.05
2019-04-20T03:26:36.820Z,102107.95
2019-04-20T03:29:18.860Z,102110.97
2019-04-20T03:35:03.320Z,102104.31
2019-04-20T03:37:10.913Z,102109.19
2019-04-20T03:39:28.500Z,102104.69
2019-04-20T03:41:48.266Z,102113.58
2019-04-20T03:44:17.643Z,102111.75
2019-04-20T03:46:51.560Z,102112.59
2019-04-20T03:49:37.982Z,102117.09
2019-04-20T03:52:02.760Z,102117.82
2019-04-20T03:54:30.828Z,102111.55
2019-04-20T03:57:15.634Z,102115.58
2019-04-20T03:59:44.642Z,102114.89
2019-04-20T04:05:06.246Z,102120.88
2019-04-20T04:07:28.289Z,102116.81
2019-04-20T04:10:06.962Z,102117.59
2019-04-20T04:12:56.796Z,102116.81
2019-04-20T04:15:25.436Z,102117.91
2019-04-20T04:17:57.932Z,102115.48
2019-04-20T04:20:33.251Z,102118.32
2019-04-20T04:23:10.364Z,102112.88
2019-04-20T04:25:35.560Z,102116.04
2019-04-20T04:28:10.801Z,102125.27
2019-04-20T04:30:36.596Z,102122.53
2019-04-20T04:35:38.791Z,102126.55
2019-04-20T04:38:12.660Z,102123.03
2019-04-20T04:40:56.709Z,102127.17
2019-04-20T04:43:16.040Z,102130.27
2019-04-20T04:45:28.523Z,102134.01
2019-04-20T04:47:57.698Z,102133.36
2019-04-20T04:50:28.613Z,102137.87
2019-04-20T04:53:04.662Z,102136.54
2019-04-20T04:55:37.056Z,102137.25
2019-04-20T04:57:58.138Z,102139.15
2019-04-20T05:00:31.221Z,102144.06
2019-04-20T05:03:07.008Z,102140.48
2019-04-20T05:05:55.921Z,102138.73
2019-04-20T05:08:15.430Z,102143.30
2019-04-20T05:10:37.014Z,102151.59
2019-04-20T05:13:05.568Z,102152.27
2019-04-20T05:15:48.429Z,102150.98
2019-04-20T05:18:32.142Z,102154.92
2019-04-20T05:20:59.094Z,102150.61
2019-04-20T05:23:30.264Z,102152.05
2019-04-20T05:26:08.489Z,102156.61
2019-04-20T05:28:30.508Z,102150.92
2019-04-20T05:30:54.979Z,102154.66
2019-04-20T05:33:27.798Z,102167.25
2019-04-20T05:36:16.348Z,102156.35
2019-04-20T05:38:50.375Z,102152.10
2019-04-20T05:41:09.935Z,102157.46
2019-04-20T05:43:41.706Z,102151.98
2019-04-20T05:46:16.936Z,102153.72
2019-04-20T05:48:48.751Z,102147.42
2019-04-20T05:51:21.164Z,102149.91
2019-04-20T05:53:50.351Z,102147.95
2019-04-20T05:56:20.338Z,102141.69
2019-04-20T05:58:53.591Z,102144.86
2019-04-20T06:01:25.868Z,102149.44
2019-04-20T06:03:49.028Z,102153.28
2019-04-20T06:06:23.477Z,102145.05
2019-04-20T06:08:59.942Z,102148.52
2019-04-20T06:11:21.181Z,102152.66
2019-04-20T06:13:50.721Z,102147.75
2019-04-20T06:19:33.180Z,102150.00
2019-04-20T06:22:03.344Z,102152.08
2019-04-20T06:24:55.321Z,102155.34
2019-04-20T06:27:06.246Z,102155.63
2019-04-20T06:29:39.031Z,102158.82
2019-04-20T06:32:10.873Z,102156.08
2019-04-20T06:34:49.023Z,102160.58
2019-04-20T06:37:04.115Z,102155.25
2019-04-20T06:39:38.617Z,102156.70
2019-04-20T06:42:14.046Z,102158.33
2019-04-20T06:44:34.360Z,102155.98
2019-04-20T06:47:11.682Z,102150.16
2019-04-20T06:49:38.432Z,102152.84
2019-04-20T06:52:17.165Z,102153.81
2019-04-20T06:54:54.110Z,102156.56
2019-04-20T06:57:31.314Z,102158.45
2019-04-20T07:00:03.763Z,102167.55
2019-04-20T07:04:59.974Z,102171.27
2019-04-20T07:07:29.772Z,102165.05
2019-04-20T07:10:12.123Z,102168.63
2019-04-20T07:12:27.552Z,102171.75
2019-04-20T07:14:53.002Z,102172.83
2019-04-20T07:17:43.808Z,102170.00
2019-04-20T07:20:00.266Z,102165.89
2019-04-20T07:22:53.874Z,102167.72
2019-04-20T07:25:07.966Z,102170.84
2019-04-20T07:27:36.866Z,102164.95
2019-04-20T07:30:07.837Z,102169.33
2019-04-20T07:32:44.278Z,102169.88
2019-04-20T07:35:08.790Z,102169.16
2019-04-20T07:38:03.304Z,102170.27
2019-04-20T07:40:10.455Z,102167.52
2019-04-20T07:42:40.697Z,102164.70
2019-04-20T07:45:16.451Z,102170.02
2019-04-20T07:48:01.437Z,102166.60
2019-04-20T07:50:08.734Z,102169.53
2019-04-20T07:52:33.818Z,102165.50
2019-04-20T07:55:35.191Z,102164.20
2019-04-20T07:57:39.070Z,102161.89
2019-04-20T08:00:13.722Z,102163.09
2019-04-20T08:02:48.798Z,102167.31
2019-04-20T08:05:27.844Z,102157.12
2019-04-20T08:07:53.387Z,102154.95
2019-04-20T08:10:32.439Z,102154.95
2019-04-20T08:13:10.711Z,102152.41
2019-04-20T08:15:46.144Z,102151.02
2019-04-20T08:18:16.414Z,102142.94
2019-04-20T08:20:43.904Z,102150.41
2019-04-20T08:23:14.305Z,102144.56
2019-04-20T08:25:30.607Z,102144.14
2019-04-20T08:28:16.747Z,102141.14
2019-04-20T08:31:06.332Z,102135.52
2019-04-20T08:33:55.026Z,102139.00
2019-04-20T08:36:16.718Z,102137.10
2019-04-20T08:41:12.871Z,102137.11
2019-04-20T08:43:57.419Z,102137.10
2019-04-20T08:46:20.702Z,102139.86
2019-04-20T08:48:53.523Z,102135.45
2019-04-20T08:51:19.986Z,102136.39
2019-04-20T08:53:51.759Z,102131.84
2019-04-20T08:56:14.232Z,102130.20
2019-04-20T08:58:33.940Z,102127.04
2019-04-20T09:01:05.605Z,102129.48
2019-04-20T09:03:47.538Z,102126.91
2019-04-20T09:06:14.541Z,102120.75
2019-04-20T09:08:46.596Z,102122.59
2019-04-20T09:11:19.727Z,102125.96
2019-04-20T09:13:42.488Z,102125.13
2019-04-20T09:16:04.803Z,102122.97
2019-04-20T09:18:44.347Z,102119.69
2019-04-20T09:21:13.674Z,102112.42
2019-04-20T09:23:58.026Z,102110.70
2019-04-20T09:26:27.046Z,102112.45
2019-04-20T09:29:01.673Z,102112.89
2019-04-20T09:31:34.092Z,102110.30
2019-04-20T09:34:13.046Z,102116.33
2019-04-20T09:39:24.655Z,102107.20
2019-04-20T09:42:00.902Z,102113.33
2019-04-20T09:44:24.549Z,102109.44
2019-04-20T09:46:56.342Z,102098.20
2019-04-20T09:49:37.747Z,102099.92
2019-04-20T09:52:06.839Z,102102.92
2019-04-20T09:54:39.981Z,102099.02
2019-04-20T09:57:13.770Z,102099.05
2019-04-20T09:59:44.803Z,102095.58
2019-04-20T10:02:04.550Z,102092.99
2019-04-20T10:04:23.950Z,102097.33
2019-04-20T10:06:52.597Z,102092.56
2019-04-20T10:09:29.529Z,102096.45
2019-04-20T10:11:51.234Z,102091.28
2019-04-20T10:14:20.048Z,102083.92
2019-04-20T10:16:49.732Z,102081.31
2019-04-20T10:19:24.859Z,102082.62
2019-04-20T10:21:48.696Z,102079.12
2019-04-20T10:24:17.118Z,102078.25
2019-04-20T10:26:45.543Z,102083.03
2019-04-20T10:29:15.362Z,102076.87
2019-04-20T10:31:52.693Z,102073.72
2019-04-20T10:34:14.109Z,102079.47
2019-04-20T10:36:47.904Z,102075.61
2019-04-20T10:39:18.433Z,102077.34
2019-04-20T10:41:53.532Z,102070.23
2019-04-20T10:44:17.237Z,102069.05
2019-04-20T10:46:46.947Z,102077.64
2019-04-20T10:49:15.534Z,102063.73
2019-04-20T10:51:44.041Z,102070.71
2019-04-20T10:54:12.537Z,102068.66
2019-04-20T10:56:41.472Z,102064.73
2019-04-20T10:59:10.036Z,102067.36
2019-04-20T11:01:38.476Z,102067.73
2019-04-20T11:04:08.355Z,102068.23
2019-04-20T11:06:38.569Z,102065.16
2019-04-20T11:09:08.930Z,102056.56
2019-04-20T11:11:38.682Z,102059.00
2019-04-20T11:14:14.500Z,102058.91
2019-04-20T11:16:38.251Z,102061.37
2019-04-20T11:19:07.419Z,102064.89
2019-04-20T11:21:36.524Z,102055.86
2019-04-20T11:24:05.230Z,102055.06
2019-04-20T11:26:36.597Z,102053.64
2019-04-20T11:29:04.230Z,102052.95
2019-04-20T11:31:39.109Z,102049.34
2019-04-20T11:34:03.895Z,102043.87
2019-04-20T11:36:32.977Z,102047.89
2019-04-20T11:39:02.921Z,102045.86
2019-04-20T11:41:34.011Z,102040.32
2019-04-20T11:44:02.044Z,102031.73
2019-04-20T11:46:30.592Z,102026.91
2019-04-20T11:48:59.474Z,102028.25
2019-04-20T11:51:27.986Z,102019.78
2019-04-20T11:53:56.550Z,102028.72
2019-04-20T11:56:31.445Z,102027.08
2019-04-20T11:58:55.135Z,102018.42
2019-04-20T12:01:35.017Z,102015.39
2019-04-20T12:04:03.977Z,102007.56
2019-04-20T12:06:28.921Z,102009.44
2019-04-20T12:08:58.965Z,102009.56
2019-04-20T12:11:38.412Z,102005.06
2019-04-20T12:13:58.665Z,102002.92
2019-04-20T12:16:27.855Z,101995.49
2019-04-20T12:18:56.743Z,101999.16
2019-04-20T12:21:26.476Z,101995.69
2019-04-20T12:23:56.192Z,101997.59
2019-04-20T12:26:24.978Z,101992.13
2019-04-20T12:28:53.872Z,101991.42
2019-04-20T12:31:24.750Z,101982.97
2019-04-20T12:33:52.641Z,101982.27
2019-04-20T12:36:21.146Z,101986.69
2019-04-20T12:38:50.903Z,101983.19
2019-04-20T12:41:31.119Z,101986.14
2019-04-20T12:43:49.863Z,101981.24
2019-04-20T12:46:21.427Z,101973.56
2019-04-20T12:48:49.372Z,101971.55
2019-04-20T12:51:17.904Z,101966.28
2019-04-20T12:53:46.702Z,101961.09
2019-04-20T12:56:16.811Z,101961.30
2019-04-20T12:58:45.513Z,101960.64
2019-04-20T13:01:14.624Z,101954.23
2019-04-20T13:03:45.571Z,101953.94
2019-04-20T13:06:14.635Z,101949.22
2019-04-20T13:08:49.898Z,101949.05
2019-04-20T13:11:16.205Z,101939.41
2019-04-20T13:13:56.534Z,101938.14
2019-04-20T13:16:30.381Z,101932.36
2019-04-20T13:19:01.543Z,101932.02
2019-04-20T13:21:31.201Z,101929.77
2019-04-20T13:24:00.880Z,101936.02
2019-04-20T13:26:29.520Z,101926.80
2019-04-20T13:28:59.378Z,101924.71
2019-04-20T13:31:27.910Z,101920.39
2019-04-20T13:33:57.201Z,101919.80
2019-04-20T13:36:26.180Z,101915.12
2019-04-20T13:38:54.618Z,101912.49
2019-04-20T13:41:24.122Z,101901.59
2019-04-20T13:43:54.831Z,101908.09
2019-04-20T13:46:22.987Z,101903.70
2019-04-20T13:48:51.526Z,101895.59
2019-04-20T13:51:21.026Z,101895.96
2019-04-20T13:53:50.775Z,101894.35
2019-04-20T13:56:21.766Z,101888.97
2019-04-20T13:58:51.958Z,101895.37
2019-04-20T14:01:39.015Z,101888.25
2019-04-20T14:04:12.684Z,101886.58
2019-04-20T14:06:41.822Z,101872.66
2019-04-20T14:09:11.843Z,101869.25
2019-04-20T14:11:41.414Z,101873.95
2019-04-20T14:14:10.856Z,101864.39
2019-04-20T14:16:39.444Z,101859.73
2019-04-20T14:19:09.193Z,101862.21
2019-04-20T14:21:38.464Z,101862.66
2019-04-20T14:24:08.773Z,101851.59
2019-04-20T14:26:40.349Z,101857.20
2019-04-20T14:29:07.642Z,101852.19
2019-04-20T14:31:37.427Z,101864.45
2019-04-20T14:34:06.854Z,101849.56
2019-04-20T14:36:37.021Z,101847.67
2019-04-20T14:39:07.897Z,101843.91
2019-04-20T14:41:36.401Z,101842.77
2019-04-20T14:44:05.803Z,101843.06
2019-04-20T14:46:35.751Z,101835.42
2019-04-20T14:49:04.919Z,101833.81
2019-04-20T14:51:33.679Z,101829.76
2019-04-20T14:54:03.264Z,101832.50
2019-04-20T14:56:31.794Z,101824.97
2019-04-20T14:59:05.279Z,101830.96
2019-04-20T15:01:44.947Z,101829.81
2019-04-20T15:04:17.993Z,101822.01
2019-04-20T15:06:44.456Z,101814.69
2019-04-20T15:09:13.098Z,101820.77
2019-04-20T15:11:44.267Z,101807.17
2019-04-20T15:14:11.672Z,101820.79
2019-04-20T15:16:40.400Z,101818.77
2019-04-20T15:19:11.798Z,101818.56
2019-04-20T15:21:42.104Z,101808.48
2019-04-20T15:24:11.351Z,101815.28
2019-04-20T15:26:40.446Z,101810.95
2019-04-20T15:29:10.383Z,101805.48
2019-04-20T15:31:39.098Z,101817.25
2019-04-20T15:34:08.833Z,101809.50
2019-04-20T15:36:38.166Z,101801.55
2019-04-20T15:39:07.557Z,101804.38
2019-04-20T15:41:36.003Z,101799.09
2019-04-20T15:44:04.785Z,101804.52
2019-04-20T15:46:34.741Z,101804.62
2019-04-20T15:49:04.080Z,101799.59
2019-04-20T15:51:34.150Z,101800.35
2019-04-20T15:54:02.763Z,101802.56
2019-04-20T15:56:31.167Z,101796.77
2019-04-20T15:58:59.601Z,101797.28
2019-04-20T16:01:30.304Z,101801.66
2019-04-20T16:04:01.528Z,101800.95
2019-04-20T16:06:31.569Z,101801.16
2019-04-20T16:09:02.102Z,101797.92
2019-04-20T16:11:31.052Z,101796.78
2019-04-20T16:14:00.184Z,101792.59
2019-04-20T16:16:31.949Z,101792.05
2019-04-20T16:19:04.032Z,101801.26
2019-04-20T16:21:33.953Z,101791.59
2019-04-20T16:24:02.382Z,101790.78
2019-04-20T16:26:33.503Z,101795.16
2019-04-20T16:29:03.716Z,101790.67
2019-04-20T16:31:32.738Z,101784.14
2019-04-20T16:34:01.264Z,101783.22
2019-04-20T16:36:30.499Z,101780.05
2019-04-20T16:38:59.520Z,101781.76
2019-04-20T16:41:28.426Z,101778.78
2019-04-20T16:43:57.467Z,101774.76
2019-04-20T16:46:26.095Z,101771.84
2019-04-20T16:48:54.958Z,101773.19
2019-04-20T16:51:25.163Z,101768.92
2019-04-20T16:53:54.014Z,101772.14
2019-04-20T16:56:22.586Z,101765.45
2019-04-20T16:58:57.256Z,101759.75
2019-04-20T17:01:21.591Z,101762.37
2019-04-20T17:04:01.050Z,101766.31
2019-04-20T17:06:22.195Z,101765.23
2019-04-20T17:08:51.333Z,101768.76
2019-04-20T17:11:19.945Z,101412.53
2019-04-20T17:13:52.761Z,101757.66
2019-04-20T17:19:41.541Z,101759.41
2019-04-20T17:35:00.513Z,101756.61
2019-04-20T17:37:15.889Z,101764.04
2019-04-20T17:46:02.747Z,101765.98
2019-04-20T17:48:37.186Z,101762.19
2019-04-20T17:51:20.760Z,101764.59
2019-04-20T17:53:37.424Z,101764.41
2019-04-20T17:56:02.361Z,101763.36
2019-04-20T17:58:34.431Z,101758.33
2019-04-20T18:01:08.680Z,101762.53
2019-04-20T18:06:27.729Z,101761.58
2019-04-20T18:08:59.880Z,101767.73
2019-04-20T18:11:21.368Z,101767.86
2019-04-20T18:13:47.827Z,101768.58
2019-04-20T18:16:41.835Z,101776.15
2019-04-20T18:19:05.671Z,101776.69
2019-04-20T18:21:43.549Z,101772.13
2019-04-20T18:24:24.009Z,101772.16
2019-04-20T18:26:59.654Z,101776.64
2019-04-20T18:29:32.680Z,101780.13
2019-04-20T18:31:44.352Z,101769.52
2019-04-20T18:34:23.717Z,101773.63
2019-04-20T18:36:51.576Z,101773.86
2019-04-20T18:39:30.516Z,101770.44
2019-04-20T18:42:01.206Z,101769.22
2019-04-20T18:44:32.373Z,101773.25
2019-04-20T18:47:26.433Z,101768.20
2019-04-20T19:13:22.366Z,101779.83
2019-04-20T19:16:16.564Z,101781.70
2019-04-20T19:19:04.370Z,101783.47
2019-04-20T19:21:29.564Z,101786.99
2019-04-20T19:24:06.526Z,101795.31
2019-04-20T19:26:28.648Z,101794.08
2019-04-20T19:29:12.005Z,101794.58
2019-04-20T19:31:44.774Z,101793.73
2019-04-20T19:34:18.562Z,101795.05
2019-04-20T19:36:36.778Z,101800.31
2019-04-20T19:39:15.125Z,101796.48
2019-04-20T19:41:41.795Z,101803.88
2019-04-20T19:44:13.091Z,101796.08
2019-04-20T19:46:48.254Z,101803.47
2019-04-20T19:49:16.636Z,101799.22
2019-04-20T19:51:55.155Z,101806.16
2019-04-20T19:54:25.492Z,101805.76
2019-04-20T19:56:47.037Z,101802.33
2019-04-20T19:59:11.163Z,101801.94
2019-04-20T20:01:31.687Z,101799.84
2019-04-20T20:04:04.003Z,101804.59
2019-04-20T20:06:39.133Z,101805.08
2019-04-20T20:09:05.817Z,101805.56
2019-04-20T20:11:40.450Z,101804.72
2019-04-20T20:14:10.975Z,101801.30
2019-04-20T20:17:02.685Z,101791.81
2019-04-20T20:19:29.538Z,101795.28
2019-04-20T20:22:00.365Z,101794.00
2019-04-20T20:24:17.997Z,101795.33
2019-04-20T20:26:53.367Z,101798.78
2019-04-20T20:29:28.388Z,101794.44
2019-04-20T20:32:05.027Z,101791.89
2019-04-20T20:34:28.583Z,101795.38
2019-04-20T20:36:59.835Z,101797.56
2019-04-20T20:39:27.725Z,101793.72
2019-04-20T20:42:01.686Z,101803.67
2019-04-20T20:44:37.276Z,101802.38
2019-04-20T20:47:05.832Z,101800.23
2019-04-20T20:49:48.609Z,101800.66
2019-04-20T20:52:14.548Z,101798.96
2019-04-20T20:54:40.517Z,101797.67
2019-04-20T20:57:02.820Z,101802.89
2019-04-20T20:59:34.762Z,101801.61
2019-04-20T21:02:04.401Z,101806.80
2019-04-20T21:04:25.769Z,101803.80
2019-04-20T21:06:54.899Z,101799.49
2019-04-20T21:09:25.457Z,101802.11
2019-04-20T21:12:00.895Z,101800.80
2019-04-20T21:14:27.893Z,101793.51
2019-04-20T21:17:02.759Z,101803.44
2019-04-20T21:19:45.193Z,101800.44
2019-04-20T21:22:02.986Z,101806.89
2019-04-20T21:24:27.274Z,101800.44
2019-04-20T21:27:01.620Z,101799.58
2019-04-20T21:29:33.793Z,101798.72
2019-04-20T21:32:03.371Z,101793.55
2019-04-20T21:34:27.353Z,101798.29
2019-04-20T21:37:03.497Z,101800.42
2019-04-20T21:39:37.086Z,101797.86
2019-04-20T21:42:04.369Z,101797.01
2019-04-20T21:44:31.712Z,101795.70
2019-04-20T21:46:58.223Z,101791.83
2019-04-20T21:49:43.974Z,101788.81
2019-04-20T21:52:01.695Z,101789.68
2019-04-20T21:54:27.798Z,101794.02
2019-04-20T21:57:01.653Z,101792.27
2019-04-20T21:59:34.610Z,101797.45
2019-04-20T22:02:09.875Z,101793.16
2019-04-20T22:04:29.132Z,101790.56
2019-04-20T22:06:58.302Z,101787.13
2019-04-20T22:09:34.507Z,101791.42
2019-04-20T22:11:58.507Z,101785.38
2019-04-20T22:14:31.331Z,101783.67
2019-04-20T22:17:00.049Z,101787.98
2019-04-20T22:19:36.655Z,101783.23
2019-04-20T22:22:07.705Z,101784.94
2019-04-20T22:24:43.764Z,101782.36
2019-04-20T22:27:06.339Z,101780.64
2019-04-20T22:29:28.134Z,101781.06
2019-04-20T22:32:03.934Z,101787.08
2019-04-20T22:34:29.843Z,101780.18
2019-04-20T22:36:58.476Z,101777.16
2019-04-20T22:39:32.225Z,101776.30
2019-04-20T22:42:04.930Z,101778.39
2019-04-20T22:44:31.054Z,101772.36
2019-04-20T22:47:04.157Z,101770.63
2019-04-20T22:49:44.219Z,101766.75
2019-04-20T22:52:18.579Z,101764.59
2019-04-20T22:54:44.707Z,101767.14
2019-04-20T22:57:09.374Z,101768.44
2019-04-20T22:59:42.168Z,101762.41
2019-04-20T23:02:04.158Z,101762.41
2019-04-20T23:04:33.042Z,101768.44
2019-04-20T23:07:03.009Z,101752.88
2019-04-20T23:09:34.127Z,101756.33
2019-04-20T23:12:09.648Z,101752.02
2019-04-20T23:14:36.409Z,101758.48
2019-04-20T23:22:13.565Z,101745.97
2019-04-20T23:24:45.002Z,101751.09
2019-04-20T23:27:20.834Z,101745.06
2019-04-20T23:29:45.124Z,101736.00
2019-04-20T23:32:15.935Z,101735.53
2019-04-20T23:34:44.750Z,101726.05
2019-04-20T23:37:17.002Z,101725.61
2019-04-20T23:39:47.323Z,101727.33
2019-04-20T23:42:16.117Z,101722.58
2019-04-20T23:45:02.218Z,101718.67
2019-04-20T23:47:54.157Z,101716.52
2019-04-20T23:53:24.324Z,101716.48
2019-04-20T23:55:37.138Z,101712.16
2019-04-20T23:58:08.784Z,101714.24
